Capitol Logistics 1869

Operating for CJT



CYHM
John C. Munro Hamilton International Airport
Hamilton, CA
CYVR
Vancouver International Airport
Vancouver, CA

Activity Log

Date Flight Route Aircraft Duration
11/20/2021 CPX1869 DERLO TVC DLH MOT PEMDU YXC BOOTH CANUC5 B752 7h 05m
11/10/2021 CPX1869 NUBER NUGOP SSM YQT J500 VBI J500 YYN MEDAK Q888 BOOTH CANUC5 B763 5h 07m

Route Details

Aircraft Information
Group: North America Fleet
Types: B738,B752,B762,B763
Route Data
Demand: H
Distance: 1810nm
Duration: 4h 25m
Recm'd Route: DERLO TVC DLH MOT PEMDU YXC BOOTH CANUC5
Origin Wx: CYHM 270600Z 23006KT 15SM -RA BKN017 OVC055 19/18 A2979 RMK SC6SC2 SLP086 DENSITY ALT 1600FT
Dest. Wx: CYVR 270613Z 11003KT 8SM -RA FEW005 SCT008 BKN017 OVC028 13/13 A2976 RMK SF1SF3SC3NS2 SF TR SLP081
Notes:

Financial History
Total Freight: 147,077lbs
Average Load: 73,539lbs/flt
Fuel Used: 95,743lbs
Avg. Fuel Used: 47,872lbs/flt
Fuel Expense: $29,767
Avg. Fuel Expense: $14,884
Avg. Fuel Cost: $0.31/lbs
Total Gross Income: $398,579
Pilot Pay: $428
Total Expenses: $55,556
Total Revenue: $310,749
Average Revenue: $199,289.34